Portada
METAR-TAF:

METAR-TAF

Aeroports :

Bàssora, Iraq

latitud: 30-32-56N, longitud: 47-39-45E, altitud: 1 m

Observació

L'informe es va fer fa 47 minuts, a les 13:00 UTC
Vent 10 kt del Nord-Oest
Temperatura 46°C
Humitat 8%
Pressió 1002 hPa
Visibilitat 10 km o més
sense núvols per sota de 1500 mi sense presència de cumulonimbus.

METAR: ORMM 031300Z 32010KT CAVOK 46/03 Q1002 NOSIG

Hora: 16:47 (13:47 UTC)

Pronòstic

L'informe es va fer fa 3 hores i 47 minuts, a les 10:00 UTC
Pronòstic vàlid del 03 a les 12 UTC al 04 a les 12 UTC
Vent 10 kt del Oest/Nord-Oest
Visibilitat 10 km o més
sense núvols per sota de 1500 mi sense presència de cumulonimbus.

TAF: ORMM 031000Z 0312/0412 29010KT CAVOK

Observacions i pronòstics meteorològics de més de 4000 aeroports (METAR i TAF).

Les estacions disponibles són els punts grocs i vermells al mapa.

Posi el ratolí al punt desitjat per veure el nom de l'estació.

Feu clic per veure les observacions i els pronòstics meteorològics.

Per canviar el mapa: feu clic els botons verds amb una creu de color negre per apropar; al botó verd amb un guió per allunyar la imatge; o en les fletxes verdes per a mapes adjacents.


METAR-TAF: